PWSweather.com
Personal Weather Stations
Station Observations
DW1039
Liberty & Fairfield Townships, Hamilton, OH 45011

Liberty & Fairfield TownshipsHamilton, OH 45011

Lat: 39.3933, Lon: -84.477

Elevation: 780

Station Type: Davis Vantage Pro2 (Daytime Fan Aspirated)

http://www.lfweathercenter.com/

High Low Average
Temperature 57.6°F14.2°C 41.8°F5.4°C 51.0°F10.6°C
Dew Point 51.6°F10.9°C 34.3°F1.3°C 46.3°F7.9°C
Winds 29.0 mph 46.7 kmh Calm Calm 10.0 mph S16.1 kmh S
Wind Gusts 36.0 mph57.9 kmh 4.0 mph6.4 kmh 21.0 mph33.8 kmh
Humidity 93% 72% 84%
Pressure 29.91 in1012.9 mb 29.63 in1003.4 mb -
Precipitation 0.02 in0.5 mm - -
Hour Temp Dew Point Humidity Winds Wind Gusts Pressure Precip Precip Rate Daily Precip Total
12:00 AM 51.0°F10.6°C 47.6°F8.7°C 88% 11.0 mph SE17.7 kmh SE 16.0 mph25.7 kmh 29.88 in1011.9 mb 0.00 in0.0 mm 0.00 in/hr0.0 mm/hr 0.00 in0.0 mm
12:11 AM 51.2°F10.7°C 47.5°F8.6°C 87% 14.0 mph SE22.5 kmh SE 15.0 mph24.1 kmh 29.87 in1011.5 mb 0.00 in0.0 mm 0.00 in/hr0.0 mm/hr 0.00 in0.0 mm
12:20 AM 51.6°F10.9°C 47.9°F8.8°C 87% 10.0 mph S16.1 kmh S 18.0 mph29.0 kmh 29.87 in1011.5 mb 0.00 in0.0 mm 0.00 in/hr0.0 mm/hr 0.00 in0.0 mm
12:30 AM 52.1°F11.2°C 48.4°F9.1°C 87% 15.0 mph SE24.1 kmh SE 18.0 mph29.0 kmh 29.85 in1010.8 mb 0.00 in0.0 mm 0.00 in/hr0.0 mm/hr 0.00 in0.0 mm
12:40 AM 52.6°F11.4°C 48.9°F9.4°C 87% 15.0 mph ESE24.1 kmh ESE 26.0 mph41.8 kmh 29.83 in1010.2 mb 0.00 in0.0 mm 0.00 in/hr0.0 mm/hr 0.00 in0.0 mm
12:50 AM 52.6°F11.4°C 49.5°F9.7°C 89% 24.0 mph SSE38.6 kmh SSE 29.0 mph46.7 kmh 29.81 in1009.5 mb 0.02 in0.5 mm 0.12 in/hr3.0 mm/hr 0.02 in0.5 mm
01:01 AM 53.0°F11.7°C 49.6°F9.8°C 88% 7.0 mph SE11.3 kmh SE 25.0 mph40.2 kmh 29.80 in1009.1 mb 0.02 in0.5 mm 0.00 in/hr0.0 mm/hr 0.02 in0.5 mm
01:10 AM 53.2°F11.8°C 50.1°F10.1°C 89% 3.0 mph SE4.8 kmh SE 23.0 mph37.0 kmh 29.82 in1009.8 mb 0.02 in0.5 mm 0.00 in/hr0.0 mm/hr 0.02 in0.5 mm
01:20 AM 53.1°F11.7°C 50.0°F10.0°C 89% 13.0 mph S20.9 kmh S 20.0 mph32.2 kmh 29.81 in1009.5 mb 0.02 in0.5 mm 0.00 in/hr0.0 mm/hr 0.02 in0.5 mm
01:30 AM 53.1°F11.7°C 50.3°F10.2°C 90% 7.0 mph SE11.3 kmh SE 21.0 mph33.8 kmh 29.79 in1008.8 mb 0.02 in0.5 mm 0.00 in/hr0.0 mm/hr 0.02 in0.5 mm
01:40 AM 52.9°F11.6°C 50.1°F10.1°C 90% 13.0 mph SE20.9 kmh SE 19.0 mph30.6 kmh 29.81 in1009.5 mb 0.02 in0.5 mm 0.00 in/hr0.0 mm/hr 0.02 in0.5 mm
01:50 AM 52.6°F11.4°C 50.1°F10.1°C 91% 11.0 mph E17.7 kmh E 15.0 mph24.1 kmh 29.80 in1009.1 mb 0.04 in1.0 mm 0.12 in/hr3.0 mm/hr 0.04 in1.0 mm
02:00 AM 52.5°F11.4°C 50.3°F10.2°C 92% 7.0 mph SE11.3 kmh SE 16.0 mph25.7 kmh 29.79 in1008.8 mb 0.04 in1.0 mm 0.00 in/hr0.0 mm/hr 0.04 in1.0 mm
02:10 AM 52.6°F11.4°C 50.6°F10.3°C 93% 12.0 mph SE19.3 kmh SE 15.0 mph24.1 kmh 29.77 in1008.1 mb 0.08 in2.0 mm 0.24 in/hr6.1 mm/hr 0.08 in2.0 mm
02:20 AM 53.0°F11.7°C 51.0°F10.6°C 93% 11.0 mph S17.7 kmh S 23.0 mph37.0 kmh 29.77 in1008.1 mb 0.08 in2.0 mm 0.00 in/hr0.0 mm/hr 0.08 in2.0 mm
02:30 AM 53.2°F11.8°C 51.2°F10.7°C 93% 10.0 mph S16.1 kmh S 20.0 mph32.2 kmh 29.76 in1007.8 mb 0.08 in2.0 mm 0.00 in/hr0.0 mm/hr 0.08 in2.0 mm
02:40 AM 53.5°F11.9°C 51.2°F10.7°C 92% 9.0 mph SE14.5 kmh SE 20.0 mph32.2 kmh 29.75 in1007.5 mb 0.08 in2.0 mm 0.00 in/hr0.0 mm/hr 0.08 in2.0 mm
02:50 AM 53.9°F12.2°C 51.6°F10.9°C 92% 13.0 mph SE20.9 kmh SE 21.0 mph33.8 kmh 29.75 in1007.5 mb 0.05 in1.3 mm 0.00 in/hr0.0 mm/hr 0.08 in2.0 mm
03:00 AM 54.2°F12.3°C 51.6°F10.9°C 91% 7.0 mph SE11.3 kmh SE 24.0 mph38.6 kmh 29.74 in1007.1 mb 0.05 in1.3 mm 0.00 in/hr0.0 mm/hr 0.08 in2.0 mm
03:10 AM 54.2°F12.3°C 51.3°F10.7°C 90% 13.0 mph SE20.9 kmh SE 25.0 mph40.2 kmh 29.74 in1007.1 mb 0.02 in0.5 mm 0.00 in/hr0.0 mm/hr 0.08 in2.0 mm
03:20 AM 54.2°F12.3°C 51.3°F10.7°C 90% 16.0 mph SE25.7 kmh SE 28.0 mph45.1 kmh 29.73 in1006.8 mb 0.02 in0.5 mm 0.00 in/hr0.0 mm/hr 0.08 in2.0 mm
03:30 AM 54.2°F12.3°C 51.3°F10.7°C 90% 11.0 mph SE17.7 kmh SE 31.0 mph49.9 kmh 29.72 in1006.4 mb 0.02 in0.5 mm 0.00 in/hr0.0 mm/hr 0.08 in2.0 mm
03:40 AM 54.4°F12.4°C 51.2°F10.7°C 89% 19.0 mph SE30.6 kmh SE 24.0 mph38.6 kmh 29.72 in1006.4 mb 0.02 in0.5 mm 0.00 in/hr0.0 mm/hr 0.08 in2.0 mm
03:50 AM 54.6°F12.6°C 51.4°F10.8°C 89% 11.0 mph SE17.7 kmh SE 33.0 mph53.1 kmh 29.70 in1005.8 mb 0.02 in0.5 mm 0.00 in/hr0.0 mm/hr 0.08 in2.0 mm
04:00 AM 54.9°F12.7°C 51.4°F10.8°C 88% 10.0 mph SE16.1 kmh SE 25.0 mph40.2 kmh 29.69 in1005.4 mb 0.01 in0.3 mm 0.00 in/hr0.0 mm/hr 0.08 in2.0 mm
04:10 AM 55.0°F12.8°C 51.5°F10.8°C 88% 13.0 mph S20.9 kmh S 24.0 mph38.6 kmh 29.72 in1006.4 mb 0.00 in0.0 mm 0.00 in/hr0.0 mm/hr 0.08 in2.0 mm
04:20 AM 54.7°F12.6°C 51.2°F10.7°C 88% 13.0 mph SW20.9 kmh SW 21.0 mph33.8 kmh 29.73 in1006.8 mb 0.00 in0.0 mm 0.00 in/hr0.0 mm/hr 0.08 in2.0 mm
04:30 AM 54.1°F12.3°C 50.9°F10.5°C 89% 7.0 mph SE11.3 kmh SE 18.0 mph29.0 kmh 29.73 in1006.8 mb 0.03 in0.8 mm 0.18 in/hr4.6 mm/hr 0.11 in2.8 mm
04:40 AM 53.8°F12.1°C 51.2°F10.7°C 91% 13.0 mph SW20.9 kmh SW 24.0 mph38.6 kmh 29.73 in1006.8 mb 0.12 in3.0 mm 0.54 in/hr13.7 mm/hr 0.20 in5.1 mm
04:50 AM 51.9°F11.1°C 49.1°F9.5°C 90% 7.0 mph SW11.3 kmh SW 21.0 mph33.8 kmh 29.79 in1008.8 mb 0.19 in4.8 mm 0.42 in/hr10.7 mm/hr 0.27 in6.9 mm
05:01 AM 51.1°F10.6°C 48.6°F9.2°C 91% 9.0 mph WSW14.5 kmh WSW 12.0 mph19.3 kmh 29.78 in1008.5 mb 0.21 in5.3 mm 0.02 in/hr0.5 mm/hr 0.29 in7.4 mm
05:11 AM 50.8°F10.4°C 48.6°F9.2°C 92% 4.0 mph SW6.4 kmh SW 12.0 mph19.3 kmh 29.79 in1008.8 mb 0.21 in5.3 mm 0.00 in/hr0.0 mm/hr 0.29 in7.4 mm
05:21 AM 50.6°F10.3°C 48.4°F9.1°C 92% Calm Calm 7.0 mph11.3 kmh 29.79 in1008.8 mb 0.21 in5.3 mm 0.00 in/hr0.0 mm/hr 0.29 in7.4 mm
05:31 AM 50.3°F10.2°C 48.1°F8.9°C 92% Calm Calm 6.0 mph9.7 kmh 29.77 in1008.1 mb 0.19 in4.8 mm 0.00 in/hr0.0 mm/hr 0.29 in7.4 mm
05:40 AM 49.9°F9.9°C 48.0°F8.9°C 93% 2.0 mph S3.2 kmh S 4.0 mph6.4 kmh 29.77 in1008.1 mb 0.14 in3.6 mm 0.00 in/hr0.0 mm/hr 0.29 in7.4 mm
05:50 AM 49.7°F9.8°C 47.8°F8.8°C 93% 2.0 mph SSE3.2 kmh SSE 6.0 mph9.7 kmh 29.76 in1007.8 mb 0.06 in1.5 mm 0.00 in/hr0.0 mm/hr 0.29 in7.4 mm
06:00 AM 49.9°F9.9°C 48.0°F8.9°C 93% 3.0 mph SSE4.8 kmh SSE 10.0 mph16.1 kmh 29.76 in1007.8 mb 0.06 in1.5 mm 0.00 in/hr0.0 mm/hr 0.29 in7.4 mm
06:10 AM 49.9°F9.9°C 48.0°F8.9°C 93% 6.0 mph SE9.7 kmh SE 12.0 mph19.3 kmh 29.75 in1007.5 mb 0.07 in1.8 mm 0.06 in/hr1.5 mm/hr 0.30 in7.6 mm
06:20 AM 49.8°F9.9°C 47.9°F8.8°C 93% 6.0 mph SE9.7 kmh SE 13.0 mph20.9 kmh 29.73 in1006.8 mb 0.09 in2.3 mm 0.12 in/hr3.0 mm/hr 0.32 in8.1 mm
06:30 AM 49.7°F9.8°C 47.8°F8.8°C 93% 5.0 mph ESE8.0 kmh ESE 15.0 mph24.1 kmh 29.71 in1006.1 mb 0.10 in2.5 mm 0.06 in/hr1.5 mm/hr 0.33 in8.4 mm
06:40 AM 49.5°F9.7°C 47.6°F8.7°C 93% 11.0 mph E17.7 kmh E 21.0 mph33.8 kmh 29.63 in1003.4 mb 0.10 in2.5 mm 0.00 in/hr0.0 mm/hr 0.33 in8.4 mm
06:50 AM 49.8°F9.9°C 47.9°F8.8°C 93% 7.0 mph ESE11.3 kmh ESE 15.0 mph24.1 kmh 29.66 in1004.4 mb 0.08 in2.0 mm 0.00 in/hr0.0 mm/hr 0.33 in8.4 mm
07:01 AM 50.4°F10.2°C 48.2°F9.0°C 92% 11.0 mph SE17.7 kmh SE 16.0 mph25.7 kmh 29.68 in1005.1 mb 0.06 in1.5 mm 0.00 in/hr0.0 mm/hr 0.33 in8.4 mm
07:10 AM 50.7°F10.4°C 48.2°F9.0°C 91% 14.0 mph SE22.5 kmh SE 18.0 mph29.0 kmh 29.67 in1004.7 mb 0.05 in1.3 mm 0.00 in/hr0.0 mm/hr 0.33 in8.4 mm
07:20 AM 50.6°F10.3°C 48.1°F8.9°C 91% 10.0 mph SSE16.1 kmh SSE 23.0 mph37.0 kmh 29.65 in1004.1 mb 0.03 in0.8 mm 0.00 in/hr0.0 mm/hr 0.33 in8.4 mm
07:30 AM 50.4°F10.2°C 48.2°F9.0°C 92% 14.0 mph SE22.5 kmh SE 22.0 mph35.4 kmh 29.65 in1004.1 mb 0.01 in0.3 mm 0.00 in/hr0.0 mm/hr 0.33 in8.4 mm
07:40 AM 50.5°F10.3°C 48.3°F9.1°C 92% 6.0 mph SSE9.7 kmh SSE 15.0 mph24.1 kmh 29.64 in1003.7 mb 0.00 in0.0 mm 0.00 in/hr0.0 mm/hr 0.33 in8.4 mm
07:50 AM 50.3°F10.2°C 48.1°F8.9°C 92% 11.0 mph SW17.7 kmh SW 19.0 mph30.6 kmh 29.65 in1004.1 mb 0.00 in0.0 mm 0.00 in/hr0.0 mm/hr 0.33 in8.4 mm
08:00 AM 50.1°F10.1°C 47.9°F8.8°C 92% 3.0 mph ESE4.8 kmh ESE 19.0 mph30.6 kmh 29.64 in1003.7 mb 0.00 in0.0 mm 0.00 in/hr0.0 mm/hr 0.33 in8.4 mm
08:10 AM 50.2°F10.1°C 47.7°F8.7°C 91% 10.0 mph SE16.1 kmh SE 16.0 mph25.7 kmh 29.64 in1003.7 mb 0.00 in0.0 mm 0.00 in/hr0.0 mm/hr 0.33 in8.4 mm
08:20 AM 50.0°F10.0°C 47.5°F8.6°C 91% 10.0 mph S16.1 kmh S 18.0 mph29.0 kmh 29.64 in1003.7 mb 0.00 in0.0 mm 0.00 in/hr0.0 mm/hr 0.33 in8.4 mm
08:30 AM 50.2°F10.1°C 47.7°F8.7°C 91% 5.0 mph SSE8.0 kmh SSE 17.0 mph27.4 kmh 29.65 in1004.1 mb 0.00 in0.0 mm 0.00 in/hr0.0 mm/hr 0.33 in8.4 mm
08:40 AM 50.6°F10.3°C 48.1°F8.9°C 91% 6.0 mph SSE9.7 kmh SSE 19.0 mph30.6 kmh 29.64 in1003.7 mb 0.00 in0.0 mm 0.00 in/hr0.0 mm/hr 0.33 in8.4 mm
08:50 AM 50.4°F10.2°C 47.9°F8.8°C 91% 6.0 mph S9.7 kmh S 15.0 mph24.1 kmh 29.64 in1003.7 mb 0.00 in0.0 mm 0.00 in/hr0.0 mm/hr 0.33 in8.4 mm
09:00 AM 50.9°F10.5°C 48.1°F8.9°C 90% 5.0 mph SSE8.0 kmh SSE 21.0 mph33.8 kmh 29.64 in1003.7 mb 0.00 in0.0 mm 0.00 in/hr0.0 mm/hr 0.33 in8.4 mm
09:10 AM 51.3°F10.7°C 48.5°F9.2°C 90% 7.0 mph SSE11.3 kmh SSE 18.0 mph29.0 kmh 29.65 in1004.1 mb 0.00 in0.0 mm 0.00 in/hr0.0 mm/hr 0.33 in8.4 mm
09:20 AM 51.5°F10.8°C 48.7°F9.3°C 90% 10.0 mph SE16.1 kmh SE 18.0 mph29.0 kmh 29.65 in1004.1 mb 0.00 in0.0 mm 0.00 in/hr0.0 mm/hr 0.33 in8.4 mm
09:30 AM 51.8°F11.0°C 48.7°F9.3°C 89% 10.0 mph SSW16.1 kmh SSW 18.0 mph29.0 kmh 29.65 in1004.1 mb 0.00 in0.0 mm 0.00 in/hr0.0 mm/hr 0.33 in8.4 mm
09:40 AM 52.1°F11.2°C 48.7°F9.3°C 88% 4.0 mph SE6.4 kmh SE 17.0 mph27.4 kmh 29.64 in1003.7 mb 0.00 in0.0 mm 0.00 in/hr0.0 mm/hr 0.33 in8.4 mm
09:50 AM 52.8°F11.6°C 49.0°F9.4°C 87% 7.0 mph S11.3 kmh S 20.0 mph32.2 kmh 29.65 in1004.1 mb 0.00 in0.0 mm 0.00 in/hr0.0 mm/hr 0.33 in8.4 mm
10:00 AM 53.0°F11.7°C 49.2°F9.6°C 87% 4.0 mph SSW6.4 kmh SSW 17.0 mph27.4 kmh 29.65 in1004.1 mb 0.00 in0.0 mm 0.00 in/hr0.0 mm/hr 0.33 in8.4 mm
10:10 AM 53.3°F11.8°C 49.5°F9.7°C 87% 8.0 mph SSE12.9 kmh SSE 15.0 mph24.1 kmh 29.64 in1003.7 mb 0.00 in0.0 mm 0.00 in/hr0.0 mm/hr 0.33 in8.4 mm
10:20 AM 53.8°F12.1°C 49.7°F9.8°C 86% 11.0 mph SSW17.7 kmh SSW 20.0 mph32.2 kmh 29.64 in1003.7 mb 0.00 in0.0 mm 0.00 in/hr0.0 mm/hr 0.33 in8.4 mm
10:30 AM 53.7°F12.1°C 49.6°F9.8°C 86% 9.0 mph S14.5 kmh S 17.0 mph27.4 kmh 29.64 in1003.7 mb 0.00 in0.0 mm 0.00 in/hr0.0 mm/hr 0.33 in8.4 mm
10:40 AM 54.2°F12.3°C 49.8°F9.9°C 85% 6.0 mph S9.7 kmh S 16.0 mph25.7 kmh 29.65 in1004.1 mb 0.00 in0.0 mm 0.00 in/hr0.0 mm/hr 0.33 in8.4 mm
10:50 AM 54.6°F12.6°C 49.9°F9.9°C 84% 5.0 mph S8.0 kmh S 20.0 mph32.2 kmh 29.65 in1004.1 mb 0.00 in0.0 mm 0.00 in/hr0.0 mm/hr 0.33 in8.4 mm
11:00 AM 55.0°F12.8°C 50.3°F10.2°C 84% 6.0 mph S9.7 kmh S 19.0 mph30.6 kmh 29.65 in1004.1 mb 0.00 in0.0 mm 0.00 in/hr0.0 mm/hr 0.33 in8.4 mm
11:10 AM 55.8°F13.2°C 50.7°F10.4°C 83% 11.0 mph SSW17.7 kmh SSW 24.0 mph38.6 kmh 29.64 in1003.7 mb 0.00 in0.0 mm 0.00 in/hr0.0 mm/hr 0.33 in8.4 mm
11:20 AM 56.3°F13.5°C 50.9°F10.5°C 82% 13.0 mph SE20.9 kmh SE 26.0 mph41.8 kmh 29.65 in1004.1 mb 0.00 in0.0 mm 0.00 in/hr0.0 mm/hr 0.33 in8.4 mm
11:30 AM 56.5°F13.6°C 50.8°F10.4°C 81% 4.0 mph SSE6.4 kmh SSE 19.0 mph30.6 kmh 29.64 in1003.7 mb 0.00 in0.0 mm 0.00 in/hr0.0 mm/hr 0.33 in8.4 mm
11:40 AM 56.7°F13.7°C 50.9°F10.5°C 81% 15.0 mph S24.1 kmh S 22.0 mph35.4 kmh 29.64 in1003.7 mb 0.00 in0.0 mm 0.00 in/hr0.0 mm/hr 0.33 in8.4 mm
11:50 AM 56.6°F13.7°C 50.9°F10.5°C 81% 9.0 mph S14.5 kmh S 23.0 mph37.0 kmh 29.64 in1003.7 mb 0.00 in0.0 mm 0.00 in/hr0.0 mm/hr 0.33 in8.4 mm
12:00 PM 56.7°F13.7°C 50.6°F10.3°C 80% 12.0 mph SW19.3 kmh SW 22.0 mph35.4 kmh 29.64 in1003.7 mb 0.00 in0.0 mm 0.00 in/hr0.0 mm/hr 0.33 in8.4 mm
12:10 PM 57.0°F13.9°C 50.6°F10.3°C 79% 14.0 mph S22.5 kmh S 27.0 mph43.5 kmh 29.64 in1003.7 mb 0.00 in0.0 mm 0.00 in/hr0.0 mm/hr 0.33 in8.4 mm
12:20 PM 57.2°F14.0°C 50.8°F10.4°C 79% 7.0 mph SSW11.3 kmh SSW 21.0 mph33.8 kmh 29.64 in1003.7 mb 0.00 in0.0 mm 0.00 in/hr0.0 mm/hr 0.33 in8.4 mm
12:30 PM 57.3°F14.1°C 50.5°F10.3°C 78% 23.0 mph SW37.0 kmh SW 25.0 mph40.2 kmh 29.64 in1003.7 mb 0.00 in0.0 mm 0.00 in/hr0.0 mm/hr 0.33 in8.4 mm
12:40 PM 57.3°F14.1°C 50.5°F10.3°C 78% 13.0 mph SSW20.9 kmh SSW 27.0 mph43.5 kmh 29.64 in1003.7 mb 0.00 in0.0 mm 0.00 in/hr0.0 mm/hr 0.33 in8.4 mm
12:50 PM 57.6°F14.2°C 50.5°F10.3°C 77% 6.0 mph SW9.7 kmh SW 30.0 mph48.3 kmh 29.64 in1003.7 mb 0.00 in0.0 mm 0.00 in/hr0.0 mm/hr 0.33 in8.4 mm
01:01 PM 57.6°F14.2°C 50.8°F10.4°C 78% 19.0 mph S30.6 kmh S 24.0 mph38.6 kmh 29.63 in1003.4 mb 0.00 in0.0 mm 0.00 in/hr0.0 mm/hr 0.33 in8.4 mm
01:10 PM 56.0°F13.3°C 50.9°F10.5°C 83% 16.0 mph SW25.7 kmh SW 29.0 mph46.7 kmh 29.63 in1003.4 mb 0.01 in0.3 mm 0.07 in/hr1.8 mm/hr 0.34 in8.6 mm
01:20 PM 55.7°F13.2°C 51.0°F10.6°C 84% 7.0 mph S11.3 kmh S 24.0 mph38.6 kmh 29.64 in1003.7 mb 0.01 in0.3 mm 0.00 in/hr0.0 mm/hr 0.34 in8.6 mm
01:30 PM 55.1°F12.8°C 50.4°F10.2°C 84% 19.0 mph SSW30.6 kmh SSW 23.0 mph37.0 kmh 29.64 in1003.7 mb 0.01 in0.3 mm 0.00 in/hr0.0 mm/hr 0.34 in8.6 mm
01:40 PM 53.3°F11.8°C 47.3°F8.5°C 80% 18.0 mph SW29.0 kmh SW 36.0 mph57.9 kmh 29.66 in1004.4 mb 0.01 in0.3 mm 0.00 in/hr0.0 mm/hr 0.34 in8.6 mm
01:50 PM 51.9°F11.1°C 45.9°F7.7°C 80% 9.0 mph WSW14.5 kmh WSW 29.0 mph46.7 kmh 29.66 in1004.4 mb 0.01 in0.3 mm 0.00 in/hr0.0 mm/hr 0.34 in8.6 mm
02:00 PM 51.0°F10.6°C 45.1°F7.3°C 80% 6.0 mph WSW9.7 kmh WSW 29.0 mph46.7 kmh 29.67 in1004.7 mb 0.01 in0.3 mm 0.00 in/hr0.0 mm/hr 0.34 in8.6 mm
02:10 PM 50.5°F10.3°C 44.2°F6.8°C 79% 9.0 mph WSW14.5 kmh WSW 21.0 mph33.8 kmh 29.68 in1005.1 mb 0.00 in0.0 mm 0.00 in/hr0.0 mm/hr 0.34 in8.6 mm
02:20 PM 50.5°F10.3°C 43.2°F6.2°C 76% 14.0 mph WSW22.5 kmh WSW 30.0 mph48.3 kmh 29.68 in1005.1 mb 0.00 in0.0 mm 0.00 in/hr0.0 mm/hr 0.34 in8.6 mm
02:30 PM 50.5°F10.3°C 42.9°F6.1°C 75% 14.0 mph W22.5 kmh W 28.0 mph45.1 kmh 29.69 in1005.4 mb 0.00 in0.0 mm 0.00 in/hr0.0 mm/hr 0.34 in8.6 mm
02:40 PM 50.1°F10.1°C 42.5°F5.8°C 75% 7.0 mph SW11.3 kmh SW 28.0 mph45.1 kmh 29.69 in1005.4 mb 0.00 in0.0 mm 0.00 in/hr0.0 mm/hr 0.34 in8.6 mm
02:50 PM 49.8°F9.9°C 42.2°F5.7°C 75% 10.0 mph SW16.1 kmh SW 20.0 mph32.2 kmh 29.70 in1005.8 mb 0.00 in0.0 mm 0.00 in/hr0.0 mm/hr 0.34 in8.6 mm
03:01 PM 49.4°F9.7°C 41.1°F5.1°C 73% 23.0 mph WSW37.0 kmh WSW 31.0 mph49.9 kmh 29.71 in1006.1 mb 0.00 in0.0 mm 0.00 in/hr0.0 mm/hr 0.34 in8.6 mm
03:10 PM 48.9°F9.4°C 41.3°F5.2°C 75% 20.0 mph WSW32.2 kmh WSW 25.0 mph40.2 kmh 29.71 in1006.1 mb 0.00 in0.0 mm 0.00 in/hr0.0 mm/hr 0.34 in8.6 mm
03:20 PM 48.7°F9.3°C 41.5°F5.3°C 76% 29.0 mph SW46.7 kmh SW 29.0 mph46.7 kmh 29.72 in1006.4 mb 0.00 in0.0 mm 0.00 in/hr0.0 mm/hr 0.34 in8.6 mm
03:30 PM 49.0°F9.4°C 41.4°F5.2°C 75% 14.0 mph SW22.5 kmh SW 25.0 mph40.2 kmh 29.72 in1006.4 mb 0.00 in0.0 mm 0.00 in/hr0.0 mm/hr 0.34 in8.6 mm
03:40 PM 49.2°F9.6°C 41.3°F5.2°C 74% 11.0 mph WSW17.7 kmh WSW 26.0 mph41.8 kmh 29.73 in1006.8 mb 0.00 in0.0 mm 0.00 in/hr0.0 mm/hr 0.34 in8.6 mm
04:00 PM 48.4°F9.1°C 40.9°F4.9°C 75% 10.0 mph WSW16.1 kmh WSW 20.0 mph32.2 kmh 29.73 in1006.8 mb 0.00 in0.0 mm 0.00 in/hr0.0 mm/hr 0.34 in8.6 mm
04:10 PM 47.9°F8.8°C 41.1°F5.1°C 77% 13.0 mph SW20.9 kmh SW 21.0 mph33.8 kmh 29.74 in1007.1 mb 0.00 in0.0 mm 0.00 in/hr0.0 mm/hr 0.34 in8.6 mm
04:20 PM 47.7°F8.7°C 40.5°F4.7°C 76% 8.0 mph WSW12.9 kmh WSW 22.0 mph35.4 kmh 29.75 in1007.5 mb 0.00 in0.0 mm 0.00 in/hr0.0 mm/hr 0.34 in8.6 mm
04:30 PM 47.3°F8.5°C 39.8°F4.3°C 75% 12.0 mph WSW19.3 kmh WSW 27.0 mph43.5 kmh 29.76 in1007.8 mb 0.00 in0.0 mm 0.00 in/hr0.0 mm/hr 0.34 in8.6 mm
04:40 PM 46.6°F8.1°C 39.8°F4.3°C 77% 11.0 mph WNW17.7 kmh WNW 27.0 mph43.5 kmh 29.77 in1008.1 mb 0.00 in0.0 mm 0.00 in/hr0.0 mm/hr 0.34 in8.6 mm
04:50 PM 46.2°F7.9°C 39.4°F4.1°C 77% 14.0 mph WSW22.5 kmh WSW 20.0 mph32.2 kmh 29.77 in1008.1 mb 0.00 in0.0 mm 0.00 in/hr0.0 mm/hr 0.34 in8.6 mm
05:00 PM 45.8°F7.7°C 39.0°F3.9°C 77% 7.0 mph WSW11.3 kmh WSW 19.0 mph30.6 kmh 29.79 in1008.8 mb 0.00 in0.0 mm 0.00 in/hr0.0 mm/hr 0.34 in8.6 mm
05:10 PM 45.2°F7.3°C 38.8°F3.8°C 78% 16.0 mph SW25.7 kmh SW 27.0 mph43.5 kmh 29.80 in1009.1 mb 0.00 in0.0 mm 0.00 in/hr0.0 mm/hr 0.34 in8.6 mm
05:20 PM 44.6°F7.0°C 37.2°F2.9°C 75% 8.0 mph WSW12.9 kmh WSW 21.0 mph33.8 kmh 29.81 in1009.5 mb 0.00 in0.0 mm 0.00 in/hr0.0 mm/hr 0.34 in8.6 mm
05:30 PM 44.3°F6.8°C 36.6°F2.6°C 74% 14.0 mph WSW22.5 kmh WSW 27.0 mph43.5 kmh 29.82 in1009.8 mb 0.00 in0.0 mm 0.00 in/hr0.0 mm/hr 0.34 in8.6 mm
05:40 PM 44.0°F6.7°C 36.3°F2.4°C 74% 17.0 mph SW27.4 kmh SW 28.0 mph45.1 kmh 29.83 in1010.2 mb 0.00 in0.0 mm 0.00 in/hr0.0 mm/hr 0.34 in8.6 mm
05:50 PM 43.3°F6.3°C 35.2°F1.8°C 73% 19.0 mph SW30.6 kmh SW 19.0 mph30.6 kmh 29.83 in1010.2 mb 0.00 in0.0 mm 0.00 in/hr0.0 mm/hr 0.34 in8.6 mm
06:00 PM 43.0°F6.1°C 34.6°F1.4°C 72% 12.0 mph WSW19.3 kmh WSW 26.0 mph41.8 kmh 29.84 in1010.5 mb 0.00 in0.0 mm 0.00 in/hr0.0 mm/hr 0.34 in8.6 mm
06:10 PM 42.8°F6.0°C 34.8°F1.6°C 73% 6.0 mph W9.7 kmh W 24.0 mph38.6 kmh 29.85 in1010.8 mb 0.00 in0.0 mm 0.00 in/hr0.0 mm/hr 0.34 in8.6 mm
06:20 PM 42.5°F5.8°C 34.8°F1.6°C 74% 8.0 mph SW12.9 kmh SW 19.0 mph30.6 kmh 29.86 in1011.2 mb 0.00 in0.0 mm 0.00 in/hr0.0 mm/hr 0.34 in8.6 mm
06:30 PM 42.3°F5.7°C 35.0°F1.7°C 75% 8.0 mph WSW12.9 kmh WSW 16.0 mph25.7 kmh 29.86 in1011.2 mb 0.00 in0.0 mm 0.00 in/hr0.0 mm/hr 0.34 in8.6 mm
06:40 PM 42.3°F5.7°C 35.0°F1.7°C 75% 6.0 mph WSW9.7 kmh WSW 19.0 mph30.6 kmh 29.87 in1011.5 mb 0.00 in0.0 mm 0.00 in/hr0.0 mm/hr 0.34 in8.6 mm
06:50 PM 42.1°F5.6°C 35.1°F1.7°C 76% 6.0 mph W9.7 kmh W 16.0 mph25.7 kmh 29.87 in1011.5 mb 0.00 in0.0 mm 0.00 in/hr0.0 mm/hr 0.34 in8.6 mm
07:01 PM 42.1°F5.6°C 34.8°F1.6°C 75% 4.0 mph WSW6.4 kmh WSW 20.0 mph32.2 kmh 29.88 in1011.9 mb 0.00 in0.0 mm 0.00 in/hr0.0 mm/hr 0.34 in8.6 mm
07:10 PM 42.0°F5.6°C 34.3°F1.3°C 74% 5.0 mph SW8.0 kmh SW 19.0 mph30.6 kmh 29.89 in1012.2 mb 0.00 in0.0 mm 0.00 in/hr0.0 mm/hr 0.34 in8.6 mm
07:20 PM 41.9°F5.5°C 34.9°F1.6°C 76% 3.0 mph WSW4.8 kmh WSW 12.0 mph19.3 kmh 29.90 in1012.5 mb 0.00 in0.0 mm 0.00 in/hr0.0 mm/hr 0.34 in8.6 mm
07:30 PM 41.8°F5.4°C 34.5°F1.4°C 75% 8.0 mph W12.9 kmh W 16.0 mph25.7 kmh 29.91 in1012.9 mb 0.00 in0.0 mm 0.00 in/hr0.0 mm/hr 0.34 in8.6 mm
07:40 PM 41.8°F5.4°C 34.8°F1.6°C 76% 10.0 mph SW16.1 kmh SW 14.0 mph22.5 kmh 29.92 in1013.2 mb 0.00 in0.0 mm 0.00 in/hr0.0 mm/hr 0.34 in8.6 mm
07:50 PM 41.8°F5.4°C 34.5°F1.4°C 75% 9.0 mph WSW14.5 kmh WSW 21.0 mph33.8 kmh 29.93 in1013.5 mb 0.00 in0.0 mm 0.00 in/hr0.0 mm/hr 0.34 in8.6 mm
08:00 PM 41.5°F5.3°C 34.5°F1.4°C 76% 9.0 mph WSW14.5 kmh WSW 17.0 mph27.4 kmh 29.93 in1013.5 mb 0.00 in0.0 mm 0.00 in/hr0.0 mm/hr 0.34 in8.6 mm
08:10 PM 41.3°F5.2°C 34.3°F1.3°C 76% 10.0 mph WSW16.1 kmh WSW 17.0 mph27.4 kmh 29.94 in1013.9 mb 0.00 in0.0 mm 0.00 in/hr0.0 mm/hr 0.34 in8.6 mm
08:20 PM 41.1°F5.1°C 34.5°F1.4°C 77% 6.0 mph WSW9.7 kmh WSW 23.0 mph37.0 kmh 29.95 in1014.2 mb 0.00 in0.0 mm 0.00 in/hr0.0 mm/hr 0.34 in8.6 mm
08:30 PM 41.1°F5.1°C 34.5°F1.4°C 77% 4.0 mph WSW6.4 kmh WSW 17.0 mph27.4 kmh 29.95 in1014.2 mb 0.00 in0.0 mm 0.00 in/hr0.0 mm/hr 0.34 in8.6 mm
08:40 PM 41.1°F5.1°C 34.1°F1.2°C 76% 10.0 mph W16.1 kmh W 17.0 mph27.4 kmh 29.96 in1014.6 mb 0.00 in0.0 mm 0.00 in/hr0.0 mm/hr 0.34 in8.6 mm
08:50 PM 41.0°F5.0°C 34.0°F1.1°C 76% 7.0 mph WSW11.3 kmh WSW 16.0 mph25.7 kmh 29.97 in1014.9 mb 0.00 in0.0 mm 0.00 in/hr0.0 mm/hr 0.34 in8.6 mm
09:00 PM 40.6°F4.8°C 34.0°F1.1°C 77% 9.0 mph W14.5 kmh W 13.0 mph20.9 kmh 29.98 in1015.2 mb 0.00 in0.0 mm 0.00 in/hr0.0 mm/hr 0.34 in8.6 mm
09:10 PM 40.3°F4.6°C 34.0°F1.1°C 78% 5.0 mph WSW8.0 kmh WSW 14.0 mph22.5 kmh 29.98 in1015.2 mb 0.00 in0.0 mm 0.00 in/hr0.0 mm/hr 0.34 in8.6 mm
09:20 PM 40.1°F4.5°C 33.5°F0.8°C 77% 12.0 mph WSW19.3 kmh WSW 16.0 mph25.7 kmh 29.99 in1015.6 mb 0.00 in0.0 mm 0.00 in/hr0.0 mm/hr 0.34 in8.6 mm
09:30 PM 40.1°F4.5°C 33.2°F0.7°C 76% 9.0 mph WSW14.5 kmh WSW 22.0 mph35.4 kmh 29.99 in1015.6 mb 0.00 in0.0 mm 0.00 in/hr0.0 mm/hr 0.34 in8.6 mm
09:40 PM 39.9°F4.4°C 33.3°F0.7°C 77% 8.0 mph W12.9 kmh W 14.0 mph22.5 kmh 29.99 in1015.6 mb 0.00 in0.0 mm 0.00 in/hr0.0 mm/hr 0.34 in8.6 mm
09:50 PM 39.9°F4.4°C 33.3°F0.7°C 77% 4.0 mph W6.4 kmh W 20.0 mph32.2 kmh 29.99 in1015.6 mb 0.00 in0.0 mm 0.00 in/hr0.0 mm/hr 0.34 in8.6 mm
10:00 PM 39.8°F4.3°C 33.2°F0.7°C 77% 10.0 mph WSW16.1 kmh WSW 15.0 mph24.1 kmh 29.99 in1015.6 mb 0.00 in0.0 mm 0.00 in/hr0.0 mm/hr 0.34 in8.6 mm
10:10 PM 39.9°F4.4°C 33.3°F0.7°C 77% 7.0 mph WSW11.3 kmh WSW 14.0 mph22.5 kmh 29.99 in1015.6 mb 0.00 in0.0 mm 0.00 in/hr0.0 mm/hr 0.34 in8.6 mm
10:20 PM 39.8°F4.3°C 33.2°F0.7°C 77% 4.0 mph WSW6.4 kmh WSW 12.0 mph19.3 kmh 29.99 in1015.6 mb 0.00 in0.0 mm 0.00 in/hr0.0 mm/hr 0.34 in8.6 mm
10:30 PM 39.8°F4.3°C 33.2°F0.7°C 77% 2.0 mph WSW3.2 kmh WSW 14.0 mph22.5 kmh 30.00 in1015.9 mb 0.00 in0.0 mm 0.00 in/hr0.0 mm/hr 0.34 in8.6 mm
10:40 PM 39.7°F4.3°C 33.1°F0.6°C 77% 3.0 mph WSW4.8 kmh WSW 17.0 mph27.4 kmh 29.99 in1015.6 mb 0.00 in0.0 mm 0.00 in/hr0.0 mm/hr 0.34 in8.6 mm
10:50 PM 39.6°F4.2°C 33.0°F0.6°C 77% 10.0 mph W16.1 kmh W 14.0 mph22.5 kmh 30.00 in1015.9 mb 0.00 in0.0 mm 0.00 in/hr0.0 mm/hr 0.34 in8.6 mm
11:00 PM 39.5°F4.2°C 32.9°F0.5°C 77% 3.0 mph W4.8 kmh W 16.0 mph25.7 kmh 30.00 in1015.9 mb 0.00 in0.0 mm 0.00 in/hr0.0 mm/hr 0.34 in8.6 mm
11:10 PM 39.5°F4.2°C 32.9°F0.5°C 77% 6.0 mph WSW9.7 kmh WSW 14.0 mph22.5 kmh 30.00 in1015.9 mb 0.00 in0.0 mm 0.00 in/hr0.0 mm/hr 0.34 in8.6 mm
11:20 PM 38.7°F3.7°C 32.4°F0.2°C 78% 5.0 mph WSW8.0 kmh WSW 11.0 mph17.7 kmh 30.01 in1016.3 mb 0.00 in0.0 mm 0.00 in/hr0.0 mm/hr 0.34 in8.6 mm
11:30 PM 38.7°F3.7°C 32.4°F0.2°C 78% 3.0 mph WSW4.8 kmh WSW 15.0 mph24.1 kmh 30.01 in1016.3 mb 0.00 in0.0 mm 0.00 in/hr0.0 mm/hr 0.34 in8.6 mm
11:40 PM 38.9°F3.8°C 32.6°F0.3°C 78% 9.0 mph W14.5 kmh W 13.0 mph20.9 kmh 30.01 in1016.3 mb 0.00 in0.0 mm 0.00 in/hr0.0 mm/hr 0.34 in8.6 mm
11:50 PM 38.9°F3.8°C 33.0°F0.6°C 79% 3.0 mph WSW4.8 kmh WSW 10.0 mph16.1 kmh 30.01 in1016.3 mb 0.00 in0.0 mm 0.00 in/hr0.0 mm/hr 0.34 in8.6 mm